Time;durP1;ratioP1;P1;durP2;ratioP2;P2;SDS_P1;SDS_P2;PMS_P1;PMS_P2;Temp;Humidity;BMP_temperature;BMP_pressure;BME280_temperature;BME280_humidity;BME280_pressure;Samples;Min_cycle;Max_cycle;Signal;HPM_P1;HPM_P2
2023/12/03 00:00:31;;;;;;;0.70;0.70;;;;;;;-4.61;100.00;97216.56;29376;209;63005;-59
2023/12/03 00:01:02;;;;;;;0.70;0.70;;;;;;;-4.62;100.00;97217.59;29376;212;63009;-59
2023/12/03 00:01:34;;;;;;;0.70;0.70;;;;;;;-4.61;100.00;97213.94;29376;212;63008;-59
2023/12/03 00:02:10;;;;;;;1.00;1.00;;;;;;;-4.60;100.00;97215.56;29374;203;64013;-60
2023/12/03 00:02:43;;;;;;;0.70;0.70;;;;;;;-4.61;100.00;97208.62;29376;209;63004;-59
2023/12/03 00:03:14;;;;;;;0.70;0.70;;;;;;;-4.61;100.00;97213.94;29376;239;63009;-60
2023/12/03 00:03:46;;;;;;;0.80;0.80;;;;;;;-4.61;100.00;97206.81;29376;196;63004;-58
2023/12/03 00:04:17;;;;;;;0.70;0.70;;;;;;;-4.62;100.00;97207.81;29376;339;63009;-60
2023/12/03 00:04:52;;;;;;;0.75;0.75;;;;;;;-4.60;100.00;97215.56;29376;283;63004;-59
2023/12/03 00:05:23;;;;;;;0.70;0.70;;;;;;;-4.59;100.00;97218.03;29376;220;63008;-59
2023/12/03 00:05:55;;;;;;;0.75;0.75;;;;;;;-4.60;100.00;97215.56;29376;219;63004;-59
2023/12/03 00:06:26;;;;;;;0.70;0.70;;;;;;;-4.60;100.00;97211.09;29376;213;63009;-60
2023/12/03 00:06:58;;;;;;;0.70;0.70;;;;;;;-4.60;100.00;97210.28;29376;197;63005;-59
2023/12/03 00:07:33;;;;;;;0.70;0.70;;;;;;;-4.60;100.00;97220.88;29374;200;64014;-59
2023/12/03 00:08:05;;;;;;;0.70;0.70;;;;;;;-4.59;100.00;97217.22;29376;206;63005;-59
2023/12/03 00:08:36;;;;;;;0.80;0.80;;;;;;;-4.60;100.00;97213.75;29375;200;63009;-58
2023/12/03 00:09:07;;;;;;;0.80;0.80;;;;;;;-4.60;100.00;97215.56;29376;231;63005;-59
2023/12/03 00:09:39;;;;;;;0.70;0.70;;;;;;;-4.60;100.00;97205.78;29374;224;63009;-59
2023/12/03 00:10:11;;;;;;;0.70;0.70;;;;;;;-4.59;100.00;97217.22;29375;202;63005;-60
2023/12/03 00:10:42;;;;;;;0.73;0.73;;;;;;;-4.57;100.00;97220.50;29375;242;63009;-59
2023/12/03 00:11:14;;;;;;;1.23;1.23;;;;;;;-4.57;100.00;97216.00;29375;227;63004;-60
2023/12/03 00:11:45;;;;;;;0.70;0.70;;;;;;;-4.56;100.00;97216.84;29375;202;63023;-59
2023/12/03 00:12:16;;;;;;;0.80;0.80;;;;;;;-4.54;100.00;97214.81;29375;226;63004;-59
2023/12/03 00:12:47;;;;;;;0.73;0.73;;;;;;;-4.54;100.00;97217.47;29373;212;64013;-59
2023/12/03 00:13:18;;;;;;;0.70;0.70;;;;;;;-4.54;100.00;97220.09;29375;204;63004;-59
2023/12/03 00:13:50;;;;;;;0.70;0.70;;;;;;;-4.56;100.00;97216.84;29375;211;63019;-59
2023/12/03 00:14:21;;;;;;;0.70;0.70;;;;;;;-4.58;100.00;97222.31;29375;197;63005;-60
2023/12/03 00:14:52;;;;;;;0.80;0.80;;;;;;;-4.59;100.00;97217.22;29375;229;63009;-60
2023/12/03 00:15:23;;;;;;;0.70;0.70;;;;;;;-4.61;100.00;97219.22;29375;236;63005;-60
2023/12/03 00:15:54;;;;;;;0.80;0.80;;;;;;;-4.63;100.00;97216.75;29375;203;63009;-59
2023/12/03 00:16:25;;;;;;;0.77;0.77;;;;;;;-4.61;100.00;97213.94;29375;211;63010;-60
2023/12/03 00:16:57;;;;;;;0.80;0.80;;;;;;;-4.62;100.00;97213.09;29373;209;64013;-59
2023/12/03 00:17:28;;;;;;;0.80;0.80;;;;;;;-4.62;100.00;97221.06;29375;224;63005;-60
2023/12/03 00:17:59;;;;;;;0.75;0.75;;;;;;;-4.61;100.00;97219.22;29373;271;64009;-59
2023/12/03 00:18:30;;;;;;;0.80;0.80;;;;;;;-4.62;100.00;97218.41;29375;279;63004;-60
2023/12/03 00:19:01;;;;;;;0.70;0.70;;;;;;;-4.62;100.00;97210.47;29375;216;63009;-59
2023/12/03 00:19:33;;;;;;;0.70;0.70;;;;;;;-4.61;100.00;97219.22;29375;247;63004;-60
2023/12/03 00:20:05;;;;;;;0.70;0.70;;;;;;;-4.61;100.00;97219.22;29375;206;63009;-60
2023/12/03 00:20:37;;;;;;;0.70;0.70;;;;;;;-4.61;100.00;97222.69;29375;207;63004;-60
2023/12/03 00:21:09;;;;;;;0.70;0.70;;;;;;;-4.59;100.00;97211.91;29375;229;63009;-60
2023/12/03 00:21:40;;;;;;;0.70;0.70;;;;;;;-4.58;100.00;97213.53;29373;198;64009;-59
2023/12/03 00:22:12;;;;;;;0.80;0.80;;;;;;;-4.58;100.00;97216.19;29375;221;63009;-60
2023/12/03 00:22:44;;;;;;;0.70;0.70;;;;;;;-4.58;100.00;97218.84;29375;225;63005;-60
2023/12/03 00:23:15;;;;;;;0.70;0.70;;;;;;;-4.59;100.00;97217.22;29375;213;63016;-59
2023/12/03 00:23:47;;;;;;;0.80;0.80;;;;;;;-4.59;100.00;97222.50;29375;298;63005;-59
2023/12/03 00:24:18;;;;;;;0.70;0.70;;;;;;;-4.58;100.00;97221.50;29375;225;63009;-59
2023/12/03 00:24:49;;;;;;;0.70;0.70;;;;;;;-4.59;100.00;97217.22;29375;213;63005;-59
2023/12/03 00:25:21;;;;;;;0.80;0.80;;;;;;;-4.59;100.00;97217.22;29376;249;63009;-60
2023/12/03 00:25:52;;;;;;;0.80;0.80;;;;;;;-4.58;100.00;97224.13;29375;240;63004;-58
2023/12/03 00:26:23;;;;;;;0.80;0.80;;;;;;;-4.59;100.00;97218.03;29375;254;63009;-60
2023/12/03 00:26:54;;;;;;;0.80;0.80;;;;;;;-4.57;100.00;97220.50;29373;240;64009;-60
2023/12/03 00:27:25;;;;;;;0.77;0.77;;;;;;;-4.57;100.00;97217.84;29375;203;63009;-60
2023/12/03 00:27:57;;;;;;;0.80;0.80;;;;;;;-4.58;100.00;97218.84;29375;212;63004;-60
2023/12/03 00:28:28;;;;;;;0.70;0.70;;;;;;;-4.59;100.00;97223.31;29375;213;63008;-60
2023/12/03 00:28:59;;;;;;;0.80;0.80;;;;;;;-4.61;100.00;97220.03;29375;232;63005;-60
2023/12/03 00:29:30;;;;;;;0.80;0.80;;;;;;;-4.60;100.00;97220.88;29375;319;63009;-59
2023/12/03 00:30:01;;;;;;;0.80;0.80;;;;;;;-4.60;100.00;97223.50;29375;222;63010;-59
2023/12/03 00:30:32;;;;;;;0.80;0.80;;;;;;;-4.61;100.00;97219.22;29375;208;63009;-59
2023/12/03 00:31:04;;;;;;;0.80;0.80;;;;;;;-4.62;100.00;97225.53;29373;241;64005;-60
2023/12/03 00:31:36;;;;;;;0.80;0.80;;;;;;;-4.64;100.00;97219.59;29375;199;63009;-59
2023/12/03 00:32:07;;;;;;;0.70;0.70;;;;;;;-4.64;100.00;97230.19;29373;303;64009;-59
2023/12/03 00:32:39;;;;;;;0.80;0.80;;;;;;;-4.66;100.00;97219.78;29374;303;63025;-59
2023/12/03 00:33:10;;;;;;;0.80;0.80;;;;;;;-4.64;100.00;97224.91;29375;237;63004;-59
2023/12/03 00:33:41;;;;;;;0.70;0.70;;;;;;;-4.63;100.00;97226.53;29375;207;63009;-59
2023/12/03 00:34:12;;;;;;;0.80;0.80;;;;;;;-4.63;100.00;97227.34;29374;202;63013;-60
2023/12/03 00:34:43;;;;;;;1.75;1.75;;;;;;;-4.63;100.00;97226.53;29375;203;63009;-59
2023/12/03 00:35:15;;;;;;;0.80;0.80;;;;;;;-4.63;100.00;97226.53;29375;203;63004;-59
2023/12/03 00:35:46;;;;;;;0.80;0.80;;;;;;;-4.63;100.00;97222.06;29375;225;63015;-60
2023/12/03 00:36:17;;;;;;;0.80;0.80;;;;;;;-4.64;100.00;97224.91;29375;225;63005;-60
2023/12/03 00:36:48;;;;;;;0.80;0.80;;;;;;;-4.65;100.00;97225.91;29375;209;63009;-59
2023/12/03 00:37:19;;;;;;;0.70;0.70;;;;;;;-4.67;100.00;97230.56;29373;197;64009;-59
2023/12/03 00:37:51;;;;;;;0.95;0.95;;;;;;;-4.65;100.00;97229.38;29375;204;63009;-59
2023/12/03 00:38:22;;;;;;;0.80;0.80;;;;;;;-4.63;100.00;97226.53;29375;214;63005;-60
2023/12/03 00:38:54;;;;;;;0.70;0.70;;;;;;;-4.63;100.00;97231.81;29375;246;63009;-60
2023/12/03 00:39:25;;;;;;;2.65;2.55;;;;;;;-4.62;100.00;97222.88;29375;208;63005;-60
2023/12/03 00:39:56;;;;;;;0.80;0.80;;;;;;;-4.65;100.00;97225.91;29375;196;63009;-59
2023/12/03 00:40:28;;;;;;;0.70;0.70;;;;;;;-4.65;100.00;97228.53;29375;202;63004;-59
2023/12/03 00:40:59;;;;;;;0.80;0.80;;;;;;;-4.65;100.00;97233.84;29375;374;63009;-59
2023/12/03 00:41:30;;;;;;;0.70;0.70;;;;;;;-4.68;100.00;97228.91;29375;282;63004;-60
2023/12/03 00:42:02;;;;;;;0.80;0.80;;;;;;;-4.69;100.00;97228.09;29373;203;64013;-59
2023/12/03 00:42:34;;;;;;;0.70;0.70;;;;;;;-4.68;100.00;97234.22;29375;274;63004;-59
2023/12/03 00:43:05;;;;;;;0.70;0.70;;;;;;;-4.67;100.00;97226.09;29375;296;63008;-59
2023/12/03 00:43:36;;;;;;;0.75;0.75;;;;;;;-4.66;100.00;97226.91;29375;202;63004;-60
2023/12/03 00:44:07;;;;;;;0.77;0.77;;;;;;;-4.64;100.00;97235.47;29375;210;63009;-59
2023/12/03 00:44:39;;;;;;;0.70;0.70;;;;;;;-4.65;100.00;97229.38;29375;211;63005;-60
2023/12/03 00:45:10;;;;;;;0.70;0.70;;;;;;;-4.64;100.00;97240.78;29375;197;63009;-60
2023/12/03 00:45:41;;;;;;;0.70;0.70;;;;;;;-4.64;100.00;97235.47;29375;273;63010;-59
2023/12/03 00:46:13;;;;;;;0.70;0.70;;;;;;;-4.62;100.00;97241.41;29375;197;63009;-60
2023/12/03 00:46:45;;;;;;;0.70;0.70;;;;;;;-4.61;100.00;97238.56;29375;203;63005;-60
2023/12/03 00:47:16;;;;;;;0.70;0.70;;;;;;;-4.61;100.00;97241.22;29373;289;64013;-60
2023/12/03 00:47:47;;;;;;;0.70;0.70;;;;;;;-4.59;100.00;97241.03;29375;212;63005;-60
2023/12/03 00:48:19;;;;;;;0.70;0.70;;;;;;;-4.60;100.00;97244.69;29375;331;63009;-59
2023/12/03 00:48:50;;;;;;;0.70;0.70;;;;;;;-4.61;100.00;97238.56;29375;251;63004;-60
2023/12/03 00:49:21;;;;;;;0.80;0.80;;;;;;;-4.59;100.00;97235.75;29375;322;63009;-60
2023/12/03 00:49:52;;;;;;;0.80;0.80;;;;;;;-4.58;100.00;97237.38;29375;218;63004;-60
2023/12/03 00:50:24;;;;;;;0.80;0.80;;;;;;;-4.58;100.00;97242.69;29375;257;63009;-60
2023/12/03 00:50:55;;;;;;;0.80;0.80;;;;;;;-4.61;100.00;97240.41;29374;244;64004;-60
2023/12/03 00:51:26;;;;;;;0.80;0.80;;;;;;;-4.64;100.00;97238.12;29375;202;63009;-60
2023/12/03 00:52:01;;;;;;;1.98;1.87;;;;;;;-4.64;100.00;97238.12;29375;222;63005;-60
2023/12/03 00:52:33;;;;;;;0.70;0.70;;;;;;;-4.63;100.00;97237.13;29373;304;64014;-60
2023/12/03 00:53:04;;;;;;;0.70;0.70;;;;;;;-4.62;100.00;97233.47;29375;236;63005;-60
2023/12/03 00:53:36;;;;;;;0.80;0.80;;;;;;;-4.61;100.00;97235.09;29375;197;63009;-59
2023/12/03 00:54:07;;;;;;;0.80;0.80;;;;;;;-4.62;100.00;97236.13;29375;211;63005;-60
2023/12/03 00:54:38;;;;;;;0.70;0.70;;;;;;;-4.60;100.00;97228.81;29375;203;63009;-60
2023/12/03 00:55:09;;;;;;;0.70;0.70;;;;;;;-4.60;100.00;97236.75;29375;203;63005;-59
2023/12/03 00:55:40;;;;;;;0.70;0.70;;;;;;;-4.60;100.00;97236.75;29375;196;63009;-59
2023/12/03 00:56:12;;;;;;;0.70;0.70;;;;;;;-4.59;100.00;97244.50;29375;221;63004;-59
2023/12/03 00:56:44;;;;;;;0.70;0.70;;;;;;;-4.57;100.00;97241.66;29375;289;63009;-59
2023/12/03 00:57:15;;;;;;;0.75;0.75;;;;;;;-4.57;100.00;97236.38;29375;246;63000;-59
2023/12/03 00:57:47;;;;;;;0.80;0.80;;;;;;;-4.57;100.00;97241.66;29373;231;64013;-59
2023/12/03 00:58:19;;;;;;;0.80;0.80;;;;;;;-4.56;100.00;97243.31;29373;260;64008;-60
2023/12/03 00:58:50;;;;;;;0.70;0.70;;;;;;;-4.56;100.00;97243.31;29375;208;63008;-60
2023/12/03 00:59:21;;;;;;;0.80;0.80;;;;;;;-4.56;100.00;97243.31;29375;247;63001;-60
2023/12/03 00:59:53;;;;;;;0.70;0.70;;;;;;;-4.55;100.00;97250.25;29375;242;63009;-60
2023/12/03 01:00:24;;;;;;;0.68;0.68;;;;;;;-4.55;100.00;97242.31;29375;282;63005;-60
2023/12/03 01:00:55;;;;;;;0.70;0.70;;;;;;;-4.56;100.00;97235.38;29375;264;63009;-58
2023/12/03 01:01:26;;;;;;;0.70;0.70;;;;;;;-4.54;100.00;97254.53;29375;238;63005;-60
2023/12/03 01:01:57;;;;;;;0.70;0.70;;;;;;;-4.53;100.00;97245.59;29375;232;63009;-59
2023/12/03 01:02:29;;;;;;;0.80;0.80;;;;;;;-4.53;100.00;97253.53;29373;214;63004;-60
2023/12/03 01:03:00;;;;;;;0.70;0.70;;;;;;;-4.53;100.00;97253.53;29373;221;63024;-59
2023/12/03 01:03:31;;;;;;;0.70;0.70;;;;;;;-4.55;100.00;97245.78;29372;206;64009;-59
2023/12/03 01:04:03;;;;;;;0.70;0.70;;;;;;;-4.55;100.00;97258.19;29373;202;63009;-59
2023/12/03 01:04:34;;;;;;;0.70;0.70;;;;;;;-4.56;100.00;97259.19;29373;222;63004;-61
2023/12/03 01:05:08;;;;;;;0.70;0.70;;;;;;;-4.56;100.00;97259.19;29373;210;63013;-59
2023/12/03 01:05:39;;;;;;;0.70;0.70;;;;;;;-4.57;100.00;97246.97;29372;226;64008;-59
2023/12/03 01:06:11;;;;;;;0.70;0.70;;;;;;;-4.58;100.00;97255.91;29371;238;64013;-60
2023/12/03 01:06:43;;;;;;;0.73;0.73;;;;;;;-4.58;100.00;97259.38;29373;203;63005;-60
2023/12/03 01:07:14;;;;;;;0.80;0.80;;;;;;;-4.59;100.00;97255.09;29373;212;63025;-58
2023/12/03 01:07:45;;;;;;;0.70;0.70;;;;;;;-4.59;100.00;97259.56;29373;318;63005;-59
2023/12/03 01:08:17;;;;;;;0.70;0.70;;;;;;;-4.60;100.00;97258.75;29373;202;63014;-60
2023/12/03 01:08:48;;;;;;;0.73;0.73;;;;;;;-4.60;100.00;97258.75;29373;205;63005;-60
2023/12/03 01:09:19;;;;;;;0.70;0.70;;;;;;;-4.62;100.00;97254.66;29373;237;63009;-59
2023/12/03 01:09:50;;;;;;;0.70;0.70;;;;;;;-4.62;100.00;97265.25;29373;264;63004;-60
2023/12/03 01:10:21;;;;;;;0.80;0.80;;;;;;;-4.63;100.00;97258.31;29371;238;64013;-60
2023/12/03 01:10:53;;;;;;;0.70;0.70;;;;;;;-4.61;100.00;97258.94;29373;213;63004;-60
2023/12/03 01:11:24;;;;;;;0.70;0.70;;;;;;;-4.61;100.00;97262.41;29373;269;63018;-59
2023/12/03 01:11:57;;;;;;;0.80;0.80;;;;;;;-4.62;100.00;97263.41;29373;226;63004;-59
2023/12/03 01:12:32;;;;;;;0.70;0.70;;;;;;;-4.61;100.00;97266.88;29373;197;63008;-60
2023/12/03 01:13:03;;;;;;;0.75;0.75;;;;;;;-4.62;100.00;97265.25;29373;254;63004;-60
2023/12/03 01:13:34;;;;;;;0.70;0.70;;;;;;;-4.64;100.00;97259.31;29372;203;63009;-59
2023/12/03 01:14:06;;;;;;;0.80;0.80;;;;;;;-4.64;100.00;97265.44;29373;210;63005;-60
2023/12/03 01:14:39;;;;;;;0.70;0.70;;;;;;;-4.62;100.00;97266.06;29373;240;63009;-58
2023/12/03 01:15:11;;;;;;;0.70;0.70;;;;;;;-4.61;100.00;97270.34;29373;213;63005;-60
2023/12/03 01:15:44;;;;;;;0.70;0.70;;;;;;;-4.61;100.00;97272.19;29371;229;64013;-61
2023/12/03 01:16:17;;;;;;;0.70;0.70;;;;;;;-4.62;100.00;97266.06;29373;272;63005;-60
2023/12/03 01:16:48;;;;;;;0.70;0.70;;;;;;;-4.60;100.00;97273.81;29373;206;63005;-59
2023/12/03 01:17:19;;;;;;;0.70;0.70;;;;;;;-4.61;100.00;97267.72;29373;220;63005;-60
2023/12/03 01:17:52;;;;;;;0.70;0.70;;;;;;;-4.62;100.00;97268.72;29373;202;63009;-59
2023/12/03 01:18:23;;;;;;;0.80;0.80;;;;;;;-4.62;100.00;97270.53;29373;327;63004;-60
2023/12/03 01:18:54;;;;;;;0.80;0.80;;;;;;;-4.66;100.00;97272.75;29373;210;63009;-59
2023/12/03 01:19:25;;;;;;;0.80;0.80;;;;;;;-4.67;100.00;97271.09;29373;222;63004;-60
2023/12/03 01:19:56;;;;;;;0.80;0.80;;;;;;;-4.65;100.00;97276.22;29373;249;63008;-60
2023/12/03 01:20:27;;;;;;;0.70;0.70;;;;;;;-4.65;100.00;97273.56;29373;211;63000;-60
2023/12/03 01:20:59;;;;;;;0.75;0.75;;;;;;;-4.65;100.00;97276.22;29371;259;64014;-59
2023/12/03 01:21:30;;;;;;;0.70;0.70;;;;;;;-4.64;100.00;97283.16;29373;231;63005;-60
2023/12/03 01:22:02;;;;;;;0.70;0.70;;;;;;;-4.65;100.00;97282.31;29373;208;63009;-59
2023/12/03 01:22:33;;;;;;;0.70;0.70;;;;;;;-4.65;100.00;97269.09;29373;232;63005;-60
2023/12/03 01:23:05;;;;;;;0.70;0.70;;;;;;;-4.64;100.00;97277.84;29373;221;63009;-58
2023/12/03 01:23:40;;;;;;;0.70;0.70;;;;;;;-4.64;100.00;97268.06;29373;273;63005;-60
2023/12/03 01:24:11;;;;;;;0.80;0.80;;;;;;;-4.64;100.00;97268.06;29373;231;63009;-59
2023/12/03 01:24:43;;;;;;;0.80;0.80;;;;;;;-4.64;100.00;97277.84;29373;208;63005;-59
2023/12/03 01:25:14;;;;;;;0.70;0.70;;;;;;;-4.65;100.00;97281.50;29373;272;63009;-60
2023/12/03 01:25:45;;;;;;;0.75;0.75;;;;;;;-4.65;100.00;97278.84;29373;207;63004;-60
2023/12/03 01:26:16;;;;;;;0.75;0.75;;;;;;;-4.64;100.00;97277.84;29371;206;64013;-60
2023/12/03 01:26:48;;;;;;;0.70;0.70;;;;;;;-4.64;100.00;97285.78;29373;251;63004;-59
2023/12/03 01:27:19;;;;;;;0.75;0.75;;;;;;;-4.64;100.00;97283.16;29373;345;63015;-60
2023/12/03 01:27:50;;;;;;;0.70;0.70;;;;;;;-4.65;100.00;97282.31;29373;232;63009;-60
2023/12/03 01:28:21;;;;;;;0.70;0.70;;;;;;;-4.63;100.00;97284.78;29373;208;63009;-60
2023/12/03 01:28:53;;;;;;;0.70;0.70;;;;;;;-4.63;100.00;97282.13;29373;214;63017;-60
2023/12/03 01:29:25;;;;;;;0.70;0.70;;;;;;;-4.65;100.00;97284.16;29373;220;63023;-59
2023/12/03 01:29:56;;;;;;;0.70;0.70;;;;;;;-4.64;100.00;97293.72;29373;242;63005;-60
2023/12/03 01:30:27;;;;;;;0.70;0.70;;;;;;;-4.64;100.00;97291.09;29373;224;63009;-61
2023/12/03 01:30:58;;;;;;;0.70;0.70;;;;;;;-4.63;100.00;97290.09;29373;230;63005;-61
2023/12/03 01:31:30;;;;;;;0.80;0.80;;;;;;;-4.62;100.00;97291.72;29371;205;64013;-59
2023/12/03 01:32:01;;;;;;;0.80;0.80;;;;;;;-4.63;100.00;97290.09;29373;241;63005;-60
2023/12/03 01:32:32;;;;;;;0.70;0.70;;;;;;;-4.64;100.00;97291.91;29373;216;63009;-58
2023/12/03 01:33:04;;;;;;;0.70;0.70;;;;;;;-4.64;100.00;97291.09;29373;221;63004;-60
2023/12/03 01:33:38;;;;;;;0.80;0.80;;;;;;;-4.65;100.00;97292.09;29373;260;63009;-59
2023/12/03 01:34:09;;;;;;;0.80;0.80;;;;;;;-4.65;100.00;97292.09;29373;204;63004;-58
2023/12/03 01:34:41;;;;;;;0.80;0.80;;;;;;;-4.65;100.00;97300.03;29373;218;63009;-60
2023/12/03 01:35:16;;;;;;;0.70;0.70;;;;;;;-4.66;100.00;97295.75;29373;202;63004;-59
2023/12/03 01:35:47;;;;;;;0.75;0.75;;;;;;;-4.68;100.00;97300.41;29373;245;63025;-60
2023/12/03 01:36:18;;;;;;;0.80;0.80;;;;;;;-4.67;100.00;97291.47;29373;210;63005;-60
2023/12/03 01:36:49;;;;;;;0.70;0.70;;;;;;;-4.67;100.00;97294.09;29371;231;64014;-59
2023/12/03 01:37:20;;;;;;;0.70;0.70;;;;;;;-4.67;100.00;97302.06;29373;205;63005;-60
2023/12/03 01:37:52;;;;;;;0.70;0.70;;;;;;;-4.69;100.00;97301.41;29373;206;63009;-60
2023/12/03 01:38:23;;;;;;;0.80;0.80;;;;;;;-4.72;100.00;97298.13;29373;207;63005;-60
2023/12/03 01:38:54;;;;;;;0.70;0.70;;;;;;;-4.73;100.00;97291.19;29373;214;63009;-60
2023/12/03 01:39:25;;;;;;;0.80;0.80;;;;;;;-4.73;100.00;97301.78;29373;226;63005;-60
2023/12/03 01:39:57;;;;;;;0.80;0.80;;;;;;;-4.72;100.00;97306.06;29373;235;63009;-59
2023/12/03 01:40:28;;;;;;;0.80;0.80;;;;;;;-4.69;100.00;97306.72;29373;229;63004;-59
2023/12/03 01:40:59;;;;;;;0.70;0.70;;;;;;;-4.69;100.00;97296.13;29373;212;63009;-59
2023/12/03 01:41:31;;;;;;;0.70;0.70;;;;;;;-4.68;100.00;97303.06;29373;206;63004;-60
2023/12/03 01:42:02;;;;;;;0.70;0.70;;;;;;;-4.69;100.00;97304.06;29371;280;64013;-59
2023/12/03 01:42:34;;;;;;;0.70;0.70;;;;;;;-4.69;100.00;97298.78;29373;246;63004;-60
2023/12/03 01:43:05;;;;;;;0.70;0.70;;;;;;;-4.68;100.00;97309.16;29373;237;63008;-59
2023/12/03 01:43:50;;;;;;;0.80;0.80;;;;;;;-4.67;100.00;97304.69;29373;202;63005;-60
2023/12/03 01:44:21;;;;;;;0.80;0.80;;;;;;;-4.68;100.00;97303.87;29373;214;63009;-60
2023/12/03 01:44:53;;;;;;;0.75;0.75;;;;;;;-4.67;100.00;97304.69;29373;232;63005;-60
2023/12/03 01:45:24;;;;;;;0.75;0.75;;;;;;;-4.69;100.00;97302.25;29373;239;63009;-60
2023/12/03 01:45:55;;;;;;;0.70;0.70;;;;;;;-4.68;100.00;97308.34;29373;246;63005;-60
2023/12/03 01:46:27;;;;;;;0.70;0.70;;;;;;;-4.68;100.00;97303.06;29373;216;63009;-58
2023/12/03 01:47:00;;;;;;;0.80;0.80;;;;;;;-4.68;100.00;97313.66;29373;210;63005;-60
2023/12/03 01:47:32;;;;;;;0.70;0.70;;;;;;;-4.68;100.00;97303.06;29371;203;64032;-59
2023/12/03 01:48:04;;;;;;;0.73;0.73;;;;;;;-4.69;100.00;97306.72;29373;253;63004;-60
2023/12/03 01:48:37;;;;;;;0.70;0.70;;;;;;;-4.72;100.00;97303.44;29373;202;63024;-60
2023/12/03 01:49:09;;;;;;;0.70;0.70;;;;;;;-4.74;100.00;97313.38;29373;298;63004;-60
2023/12/03 01:49:40;;;;;;;0.70;0.70;;;;;;;-4.74;100.00;97305.44;29373;359;63024;-60
2023/12/03 01:50:14;;;;;;;0.70;0.70;;;;;;;-4.73;100.00;97312.38;29373;210;63016;-59
2023/12/03 01:50:47;;;;;;;0.70;0.70;;;;;;;-4.73;100.00;97306.25;29373;206;63024;-60
2023/12/03 01:51:20;;;;;;;0.70;0.70;;;;;;;-4.73;100.00;97307.09;29373;205;63005;-59
2023/12/03 01:51:52;;;;;;;0.70;0.70;;;;;;;-4.72;100.00;97316.66;29373;299;63009;-60
2023/12/03 01:52:23;;;;;;;0.80;0.80;;;;;;;-4.73;100.00;97317.66;29373;197;63008;-61
2023/12/03 01:52:55;;;;;;;0.80;0.80;;;;;;;-4.73;100.00;97312.38;29371;206;64032;-60
2023/12/03 01:53:26;;;;;;;0.70;0.70;;;;;;;-4.74;100.00;97310.72;29373;199;63005;-59
2023/12/03 01:53:59;;;;;;;0.70;0.70;;;;;;;-4.75;100.00;97319.69;29373;205;63009;-60
2023/12/03 01:54:38;;;;;;;0.70;0.70;;;;;;;-4.75;100.00;97322.34;29373;199;63005;-60
2023/12/03 01:55:12;;;;;;;0.70;0.70;;;;;;;-4.74;100.00;97316.03;29373;294;63004;-59
2023/12/03 01:55:43;;;;;;;0.70;0.70;;;;;;;-4.80;100.00;97306.19;29373;253;63011;-59
2023/12/03 01:56:18;;;;;;;0.80;0.80;;;;;;;-4.75;100.00;97330.28;29373;202;63009;-60
2023/12/03 01:56:49;;;;;;;0.70;0.70;;;;;;;-4.75;100.00;97319.69;29373;283;63009;-61
2023/12/03 01:57:24;;;;;;;0.80;0.80;;;;;;;-4.74;100.00;97316.03;29373;227;63015;-59
2023/12/03 01:57:55;;;;;;;0.80;0.80;;;;;;;-4.74;100.00;97318.69;29371;196;64008;-60
2023/12/03 01:58:27;;;;;;;0.80;0.80;;;;;;;-4.73;100.00;97316.84;29373;249;63009;-59
2023/12/03 01:58:58;;;;;;;0.70;0.70;;;;;;;-4.75;100.00;97319.69;29373;226;63005;-60
2023/12/03 01:59:31;;;;;;;0.77;0.77;;;;;;;-4.75;100.00;97324.97;29373;230;63009;-59
2023/12/03 02:00:04;;;;;;;0.80;0.80;;;;;;;-4.74;100.00;97318.69;29373;211;63005;-60
2023/12/03 02:00:36;;;;;;;1.40;1.40;;;;;;;-4.73;100.00;97322.97;29373;282;63009;-58
2023/12/03 02:01:08;;;;;;;0.70;0.70;;;;;;;-4.74;100.00;97316.03;29373;207;63005;-60
2023/12/03 02:01:39;;;;;;;0.80;0.80;;;;;;;-4.74;100.00;97316.03;29373;292;63009;-60
2023/12/03 02:02:10;;;;;;;0.80;0.80;;;;;;;-4.74;100.00;97326.63;29373;225;63004;-60
2023/12/03 02:02:42;;;;;;;0.80;0.80;;;;;;;-4.73;100.00;97322.97;29373;197;63009;-60
2023/12/03 02:03:13;;;;;;;0.73;0.73;;;;;;;-4.74;100.00;97326.63;29371;255;64009;-60
2023/12/03 02:03:45;;;;;;;0.80;0.80;;;;;;;-4.74;100.00;97321.31;29373;273;63009;-60
2023/12/03 02:04:16;;;;;;;0.80;0.80;;;;;;;-4.74;100.00;97326.63;29373;245;63004;-60
2023/12/03 02:04:48;;;;;;;0.80;0.80;;;;;;;-4.73;100.00;97324.78;29373;237;63008;-60
2023/12/03 02:05:20;;;;;;;1.30;1.30;;;;;;;-4.72;100.00;97321.97;29373;230;63005;-59
2023/12/03 02:06:05;;;;;;;0.80;0.80;;;;;;;-4.73;100.00;97322.16;29373;250;63009;-60
2023/12/03 02:06:36;;;;;;;0.70;0.70;;;;;;;-4.73;100.00;97325.63;29373;285;63009;-60
2023/12/03 02:07:08;;;;;;;0.80;0.80;;;;;;;-4.73;100.00;97322.97;29373;207;63009;-60
2023/12/03 02:07:39;;;;;;;0.80;0.80;;;;;;;-4.73;100.00;97312.38;29373;239;63005;-60
2023/12/03 02:08:10;;;;;;;0.80;0.80;;;;;;;-4.72;100.00;97315.84;29373;202;63009;-60
2023/12/03 02:08:42;;;;;;;0.80;0.80;;;;;;;-4.70;100.00;97318.31;29371;207;64009;-60
2023/12/03 02:09:14;;;;;;;0.80;0.80;;;;;;;-4.70;100.00;97321.78;29373;216;63009;-59
2023/12/03 02:09:49;;;;;;;0.70;0.70;;;;;;;-4.71;100.00;97320.13;29373;202;63004;-60
2023/12/03 02:10:20;;;;;;;0.80;0.80;;;;;;;-4.70;100.00;97320.97;29373;205;63009;-60
2023/12/03 02:10:51;;;;;;;0.80;0.80;;;;;;;-4.69;100.00;97323.41;29373;213;63004;-61
2023/12/03 02:11:22;;;;;;;0.70;0.70;;;;;;;-4.70;100.00;97316.47;29373;218;63009;-60
2023/12/03 02:11:54;;;;;;;0.70;0.70;;;;;;;-4.71;100.00;97320.13;29373;222;63004;-60
2023/12/03 02:12:27;;;;;;;0.70;0.70;;;;;;;-4.70;100.00;97315.66;29373;281;63008;-60
2023/12/03 02:12:59;;;;;;;0.70;0.70;;;;;;;-4.70;100.00;97320.97;29373;238;63010;-60
2023/12/03 02:13:33;;;;;;;0.80;0.80;;;;;;;-4.74;100.00;97300.16;29373;298;63009;-60
2023/12/03 02:14:04;;;;;;;0.80;0.80;;;;;;;-4.75;100.00;97314.38;29371;206;64009;-60
2023/12/03 02:14:36;;;;;;;0.80;0.80;;;;;;;-4.75;100.00;97318.84;29373;324;63009;-60
2023/12/03 02:15:08;;;;;;;0.80;0.80;;;;;;;-4.74;100.00;97312.56;29373;285;63005;-60
2023/12/03 02:15:39;;;;;;;0.70;0.70;;;;;;;-4.75;100.00;97314.38;29373;233;63009;-60
2023/12/03 02:16:11;;;;;;;0.70;0.70;;;;;;;-4.74;100.00;97316.03;29373;197;63012;-60
2023/12/03 02:16:46;;;;;;;0.90;0.90;;;;;;;-4.75;100.00;97308.28;29373;211;63009;-60
2023/12/03 02:17:17;;;;;;;0.80;0.80;;;;;;;-4.73;100.00;97311.56;29373;202;63004;-60
2023/12/03 02:17:49;;;;;;;0.80;0.80;;;;;;;-4.74;100.00;97313.38;29373;202;63009;-59
2023/12/03 02:18:21;;;;;;;0.70;0.70;;;;;;;-4.75;100.00;97309.09;29373;202;63004;-60
2023/12/03 02:18:52;;;;;;;0.77;0.77;;;;;;;-4.75;100.00;97313.56;29373;233;63009;-60
2023/12/03 02:19:24;;;;;;;0.70;0.70;;;;;;;-4.76;100.00;97311.94;29371;207;64009;-59
2023/12/03 02:19:55;;;;;;;0.80;0.80;;;;;;;-4.76;100.00;97307.44;29373;203;63008;-59
2023/12/03 02:20:26;;;;;;;0.80;0.80;;;;;;;-4.76;100.00;97309.28;29373;341;63005;-60
2023/12/03 02:20:58;;;;;;;0.80;0.80;;;;;;;-4.76;100.00;97311.94;29373;224;63009;-60
2023/12/03 02:21:29;;;;;;;0.80;0.80;;;;;;;-4.77;100.00;97313.75;29373;231;63018;-60
2023/12/03 02:22:01;;;;;;;0.70;0.70;;;;;;;-4.76;100.00;97312.75;29373;210;63009;-60
2023/12/03 02:22:32;;;;;;;0.80;0.80;;;;;;;-4.76;100.00;97318.03;29373;256;63015;-60
2023/12/03 02:23:03;;;;;;;0.70;0.70;;;;;;;-4.77;100.00;97313.75;29373;219;63026;-59
2023/12/03 02:23:34;;;;;;;0.90;0.90;;;;;;;-4.75;100.00;97314.38;29373;245;63005;-60
2023/12/03 02:24:06;;;;;;;0.70;0.70;;;;;;;-4.74;100.00;97313.38;29373;292;63009;-60
2023/12/03 02:24:40;;;;;;;0.70;0.70;;;;;;;-4.76;100.00;97310.09;29371;220;64009;-60
2023/12/03 02:25:11;;;;;;;0.77;0.77;;;;;;;-4.77;100.00;97316.41;29373;320;63009;-60
2023/12/03 02:25:46;;;;;;;0.70;0.70;;;;;;;-4.79;100.00;97318.41;29373;197;63004;-60
2023/12/03 02:26:17;;;;;;;0.70;0.70;;;;;;;-4.80;100.00;97319.41;29373;243;63009;-60
2023/12/03 02:26:49;;;;;;;0.70;0.70;;;;;;;-4.78;100.00;97317.41;29373;226;63004;-60
2023/12/03 02:27:20;;;;;;;0.80;0.80;;;;;;;-4.76;100.00;97315.38;29373;215;63018;-59
2023/12/03 02:27:52;;;;;;;0.77;0.77;;;;;;;-4.75;100.00;97316.22;29373;234;63005;-61
2023/12/03 02:28:24;;;;;;;0.70;0.70;;;;;;;-4.75;100.00;97314.38;29373;278;63016;-59
2023/12/03 02:28:55;;;;;;;0.80;0.80;;;;;;;-4.74;100.00;97321.31;29373;238;63005;-60
2023/12/03 02:29:26;;;;;;;0.70;0.70;;;;;;;-4.75;100.00;97317.03;29373;233;63009;-60
2023/12/03 02:29:58;;;;;;;0.77;0.77;;;;;;;-4.75;100.00;97324.97;29371;233;64009;-60